Time,TemperatureF,DewpointF,PressureIn,WindDirection,WindDirectionDegrees,WindSpeedMPH,WindSpeedGustMPH,Humidity,HourlyPrecipIn,Conditions,Clouds,dailyrainin,SoftwareType,DateUTC
2013-02-03 08:40:00,33.8,28.0,30.31,East,84,1.0,-999.0,80,-99.99,,,0.00,weatherlink.com 1.10,2013-02-03 16:40:00,
2013-02-03 08:53:00,34.5,29.0,30.31,East,84,2.0,-999.0,79,-99.99,,,0.00,weatherlink.com 1.10,2013-02-03 16:53:00,
2013-02-03 09:08:00,36.1,29.0,30.31,East,84,0.0,-999.0,75,-99.99,,,0.00,weatherlink.com 1.10,2013-02-03 17:08:00,
2013-02-03 09:23:00,38.1,29.0,30.31,East,82,2.0,-999.0,71,-99.99,,,0.00,weatherlink.com 1.10,2013-02-03 17:23:00,
2013-02-03 09:38:00,40.4,30.0,30.31,South,190,1.0,-999.0,67,-99.99,,,0.00,weatherlink.com 1.10,2013-02-03 17:38:00,
2013-02-03 09:53:00,41.0,30.0,30.32,South,190,2.0,-999.0,64,-99.99,,,0.00,weatherlink.com 1.10,2013-02-03 17:53:00,
2013-02-03 10:08:00,41.6,30.0,30.32,South,190,0.0,-999.0,63,-99.99,,,0.00,weatherlink.com 1.10,2013-02-03 18:08:00,
2013-02-03 10:24:00,43.6,30.0,30.32,South,190,3.0,-999.0,58,-99.99,,,0.00,weatherlink.com 1.10,2013-02-03 18:24:00,
2013-02-03 10:38:00,43.8,30.0,30.32,South,190,1.0,-999.0,58,-99.99,,,0.00,weatherlink.com 1.10,2013-02-03 18:38:00,
2013-02-03 10:54:00,45.6,30.0,30.31,South,190,2.0,-999.0,55,-99.99,,,0.00,weatherlink.com 1.10,2013-02-03 18:54:00,
2013-02-03 11:09:00,47.0,30.0,30.31,South,190,2.0,-999.0,51,-99.99,,,0.00,weatherlink.com 1.10,2013-02-03 19:09:00,
2013-02-03 11:24:00,47.8,29.0,30.30,South,190,3.0,-999.0,48,-99.99,,,0.00,weatherlink.com 1.10,2013-02-03 19:24:00,
2013-02-03 11:39:00,48.6,28.0,30.29,South,190,2.0,-999.0,45,-99.99,,,0.00,weatherlink.com 1.10,2013-02-03 19:39:00,
2013-02-03 11:54:00,49.0,27.0,30.29,South,190,2.0,-999.0,42,-99.99,,,0.00,weatherlink.com 1.10,2013-02-03 19:54:00,
2013-02-03 12:09:00,49.6,27.0,30.27,South,190,2.0,-999.0,41,-99.99,,,0.00,weatherlink.com 1.10,2013-02-03 20:09:00,
2013-02-03 12:24:00,50.8,26.0,30.27,South,190,0.0,-999.0,38,-99.99,,,0.00,weatherlink.com 1.10,2013-02-03 20:24:00,
2013-02-03 12:40:00,51.9,25.0,30.26,South,190,2.0,-999.0,35,-99.99,,,0.00,weatherlink.com 1.10,2013-02-03 20:40:00,
2013-02-03 12:55:00,52.3,26.0,30.25,SSE,163,7.0,-999.0,36,-99.99,,,0.00,weatherlink.com 1.10,2013-02-03 20:55:00,
2013-02-03 13:10:00,52.8,27.0,30.25,SSE,157,7.0,-999.0,37,-99.99,,,0.00,weatherlink.com 1.10,2013-02-03 21:10:00,
2013-02-03 13:25:00,53.6,28.0,30.24,SSE,159,2.0,-999.0,38,-99.99,,,0.00,weatherlink.com 1.10,2013-02-03 21:25:00,
2013-02-03 13:40:00,54.3,28.0,30.24,SSE,165,7.0,-999.0,37,-99.99,,,0.00,weatherlink.com 1.10,2013-02-03 21:40:00,
2013-02-03 13:55:00,53.7,27.0,30.23,SSE,165,5.0,-999.0,36,-99.99,,,0.00,weatherlink.com 1.10,2013-02-03 21:55:00,
2013-02-03 14:10:00,53.6,23.0,30.23,NNE,16,9.0,-999.0,30,-99.99,,,0.00,weatherlink.com 1.10,2013-02-03 22:10:00,
2013-02-03 14:25:00,51.4,25.0,30.24,NNE,23,7.0,-999.0,36,-99.99,,,0.00,weatherlink.com 1.10,2013-02-03 22:25:00,
2013-02-03 14:40:00,51.9,24.0,30.25,NNW,332,8.0,-999.0,34,-99.99,,,0.00,weatherlink.com 1.10,2013-02-03 22:40:00,
2013-02-03 14:55:00,51.8,25.0,30.23,NNE,27,5.0,-999.0,36,-99.99,,,0.00,weatherlink.com 1.10,2013-02-03 22:55:00,
2013-02-03 15:10:00,52.3,25.0,30.23,NE,37,4.0,-999.0,34,-99.99,,,0.00,weatherlink.com 1.10,2013-02-03 23:10:00,
2013-02-03 15:26:00,53.0,27.0,30.24,ENE,58,4.0,-999.0,36,-99.99,,,0.00,weatherlink.com 1.10,2013-02-03 23:26:00,
2013-02-03 15:41:00,52.4,25.0,30.23,NE,49,5.0,-999.0,35,-99.99,,,0.00,weatherlink.com 1.10,2013-02-03 23:41:00,
2013-02-03 15:56:00,52.4,27.0,30.23,NE,55,3.0,-999.0,37,-99.99,,,0.00,weatherlink.com 1.10,2013-02-03 23:56:00,
2013-02-03 16:11:00,50.9,26.0,30.23,NE,50,5.0,-999.0,38,-99.99,,,0.00,weatherlink.com 1.10,2013-02-04 00:11:00,
2013-02-03 16:26:00,49.3,25.0,30.23,NE,44,0.0,-999.0,39,-99.99,,,0.00,weatherlink.com 1.10,2013-02-04 00:26:00,
2013-02-03 16:41:00,48.4,24.0,30.23,NE,46,3.0,-999.0,39,-99.99,,,0.00,weatherlink.com 1.10,2013-02-04 00:41:00,
2013-02-03 16:56:00,47.6,24.0,30.23,NE,46,1.0,-999.0,39,-99.99,,,0.00,weatherlink.com 1.10,2013-02-04 00:56:00,
2013-02-03 17:11:00,46.5,25.0,30.23,NE,46,3.0,-999.0,44,-99.99,,,0.00,weatherlink.com 1.10,2013-02-04 01:11:00,
2013-02-03 17:26:00,45.8,24.0,30.23,NE,44,4.0,-999.0,43,-99.99,,,0.00,weatherlink.com 1.10,2013-02-04 01:26:00,
2013-02-03 17:41:00,44.8,24.0,30.23,NE,42,2.0,-999.0,44,-99.99,,,0.00,weatherlink.com 1.10,2013-02-04 01:41:00,
2013-02-03 17:56:00,44.0,24.0,30.23,NE,40,4.0,-999.0,46,-99.99,,,0.00,weatherlink.com 1.10,2013-02-04 01:56:00,
2013-02-03 18:11:00,43.3,24.0,30.23,NE,40,5.0,-999.0,47,-99.99,,,0.00,weatherlink.com 1.10,2013-02-04 02:11:00,
2013-02-03 18:26:00,42.8,25.0,30.24,NNE,32,3.0,-999.0,49,-99.99,,,0.00,weatherlink.com 1.10,2013-02-04 02:26:00,
2013-02-03 18:41:00,42.4,25.0,30.24,NNE,24,1.0,-999.0,50,-99.99,,,0.00,weatherlink.com 1.10,2013-02-04 02:41:00,
2013-02-03 18:56:00,41.5,25.0,30.25,NNE,26,1.0,-999.0,52,-99.99,,,0.00,weatherlink.com 1.10,2013-02-04 02:56:00,
2013-02-03 19:12:00,40.9,24.0,30.25,NNE,18,4.0,-999.0,51,-99.99,,,0.00,weatherlink.com 1.10,2013-02-04 03:12:00,
2013-02-03 19:27:00,40.5,24.0,30.25,NNE,15,4.0,-999.0,52,-99.99,,,0.00,weatherlink.com 1.10,2013-02-04 03:27:00,
2013-02-03 19:42:00,39.4,24.0,30.25,NNE,15,3.0,-999.0,54,-99.99,,,0.00,weatherlink.com 1.10,2013-02-04 03:42:00,
2013-02-03 19:57:00,38.4,24.0,30.25,NNE,15,2.0,-999.0,56,-99.99,,,0.00,weatherlink.com 1.10,2013-02-04 03:57:00,
2013-02-03 20:12:00,37.7,24.0,30.25,NNE,15,5.0,-999.0,57,-99.99,,,0.00,weatherlink.com 1.10,2013-02-04 04:12:00,
2013-02-03 20:27:00,37.4,24.0,30.25,North,11,4.0,-999.0,58,-99.99,,,0.00,weatherlink.com 1.10,2013-02-04 04:27:00,
2013-02-03 20:42:00,37.3,23.0,30.25,North,9,3.0,-999.0,56,-99.99,,,0.00,weatherlink.com 1.10,2013-02-04 04:42:00,
2013-02-03 20:57:00,38.0,23.0,30.26,North,9,1.0,-999.0,54,-99.99,,,0.00,weatherlink.com 1.10,2013-02-04 04:57:00,
2013-02-03 21:13:00,37.6,22.0,30.26,North,5,4.0,-999.0,54,-99.99,,,0.00,weatherlink.com 1.10,2013-02-04 05:13:00,
2013-02-03 21:27:00,36.9,22.0,30.26,North,360,4.0,-999.0,55,-99.99,,,0.00,weatherlink.com 1.10,2013-02-04 05:27:00,
2013-02-03 21:42:00,36.8,22.0,30.25,North,360,4.0,-999.0,56,-99.99,,,0.00,weatherlink.com 1.10,2013-02-04 05:42:00,
2013-02-03 21:57:00,37.2,22.0,30.24,NNW,348,3.0,-999.0,55,-99.99,,,0.00,weatherlink.com 1.10,2013-02-04 05:57:00,
2013-02-03 22:12:00,36.8,23.0,30.25,NNW,346,3.0,-999.0,57,-99.99,,,0.00,weatherlink.com 1.10,2013-02-04 06:12:00,
2013-02-03 22:28:00,36.7,23.0,30.24,NNW,346,3.0,-999.0,57,-99.99,,,0.00,weatherlink.com 1.10,2013-02-04 06:28:00,
2013-02-03 22:43:00,36.7,22.0,30.25,NW,322,6.0,-999.0,56,-99.99,,,0.00,weatherlink.com 1.10,2013-02-04 06:43:00,
2013-02-03 22:58:00,36.7,22.0,30.25,NW,322,5.0,-999.0,55,-99.99,,,0.00,weatherlink.com 1.10,2013-02-04 06:58:00,
2013-02-03 23:13:00,36.5,21.0,30.25,NW,320,4.0,-999.0,54,-99.99,,,0.00,weatherlink.com 1.10,2013-02-04 07:13:00,
2013-02-03 23:28:00,36.4,20.0,30.26,NW,316,6.0,-999.0,51,-99.99,,,0.00,weatherlink.com 1.10,2013-02-04 07:28:00,
2013-02-03 23:43:00,36.5,20.0,30.26,NW,316,1.0,-999.0,51,-99.99,,,0.00,weatherlink.com 1.10,2013-02-04 07:43:00,
2013-02-03 23:58:00,35.6,20.0,30.26,NW,316,0.0,-999.0,54,-99.99,,,0.00,weatherlink.com 1.10,2013-02-04 07:58:00,